Saint Leon, Idaho
Current Conditions -  °F | °C
As of 5:53 AM on Tuesday 21 Oct 2014 (Local Time) from KIDA Reporting Station
Overcast Overcast  
Wind Chill: 59°   Ceiling: 7000
Heat Index: 59°   Visibility: 10mi
Dew Point: 40°   Wind: 16mph
Humidity: 49%   Direction: 220°SW
Pressure: 29.85"   Gusts: 23mph
Location:  43.498°N, 111.73°W
Report Text: KIDA 211153Z AUTO 22014G20KT 10SM BKN070 OVC090 15/04 A2985 RMK AO2 RAB00E17B37E48 SLP068 P0000 60000 T01500044 10172 20061 53005
Loading
Personal Weather Stations






























Interactive Weather Map
Tropical Storm Tracking
New forecast layout! Learn more

10-Day Weather Forecast

Advertisements
Track Severe Weather on mobile